sensor_id;sensor_type;location;lat;lon;timestamp;temperature;humidity
4425;DHT22;2225;53.568;13.266;2023-03-16T00:02:08;5.10;93.20
4425;DHT22;2225;53.568;13.266;2023-03-16T00:04:36;5.10;93.10
4425;DHT22;2225;53.568;13.266;2023-03-16T00:07:09;5.00;93.00
4425;DHT22;2225;53.568;13.266;2023-03-16T00:09:38;5.00;93.20
4425;DHT22;2225;53.568;13.266;2023-03-16T00:12:14;5.00;93.30
4425;DHT22;2225;53.568;13.266;2023-03-16T00:14:46;5.00;93.30
4425;DHT22;2225;53.568;13.266;2023-03-16T00:17:16;5.00;93.30
4425;DHT22;2225;53.568;13.266;2023-03-16T00:19:52;4.90;93.50
4425;DHT22;2225;53.568;13.266;2023-03-16T00:22:22;5.00;93.60
4425;DHT22;2225;53.568;13.266;2023-03-16T00:24:51;5.00;93.60
4425;DHT22;2225;53.568;13.266;2023-03-16T00:27:19;4.90;93.50
4425;DHT22;2225;53.568;13.266;2023-03-16T00:29:51;4.90;93.60
4425;DHT22;2225;53.568;13.266;2023-03-16T00:32:27;4.90;93.50
4425;DHT22;2225;53.568;13.266;2023-03-16T00:34:58;4.90;93.70
4425;DHT22;2225;53.568;13.266;2023-03-16T00:37:26;4.90;93.70
4425;DHT22;2225;53.568;13.266;2023-03-16T00:39:54;4.80;93.70
4425;DHT22;2225;53.568;13.266;2023-03-16T00:42:24;4.80;93.60
4425;DHT22;2225;53.568;13.266;2023-03-16T00:44:54;4.80;93.60
4425;DHT22;2225;53.568;13.266;2023-03-16T00:47:25;4.80;93.70
4425;DHT22;2225;53.568;13.266;2023-03-16T00:49:54;4.80;93.70
4425;DHT22;2225;53.568;13.266;2023-03-16T00:52:21;4.80;93.70
4425;DHT22;2225;53.568;13.266;2023-03-16T00:54:49;4.80;93.80
4425;DHT22;2225;53.568;13.266;2023-03-16T00:57:21;4.70;93.90
4425;DHT22;2225;53.568;13.266;2023-03-16T00:59:50;4.70;93.90
4425;DHT22;2225;53.568;13.266;2023-03-16T01:02:18;4.70;93.90
4425;DHT22;2225;53.568;13.266;2023-03-16T01:04:50;4.70;94.40
4425;DHT22;2225;53.568;13.266;2023-03-16T01:07:17;4.70;94.00
4425;DHT22;2225;53.568;13.266;2023-03-16T01:09:45;4.70;94.00
4425;DHT22;2225;53.568;13.266;2023-03-16T01:12:14;4.70;94.00
4425;DHT22;2225;53.568;13.266;2023-03-16T01:14:43;4.70;94.10
4425;DHT22;2225;53.568;13.266;2023-03-16T01:17:12;4.70;94.00
4425;DHT22;2225;53.568;13.266;2023-03-16T01:19:40;4.70;94.00
4425;DHT22;2225;53.568;13.266;2023-03-16T01:22:08;4.70;94.00
4425;DHT22;2225;53.568;13.266;2023-03-16T01:24:38;4.70;94.00
4425;DHT22;2225;53.568;13.266;2023-03-16T01:27:05;4.70;94.10
4425;DHT22;2225;53.568;13.266;2023-03-16T01:29:34;4.70;94.00
4425;DHT22;2225;53.568;13.266;2023-03-16T01:32:02;4.70;94.00
4425;DHT22;2225;53.568;13.266;2023-03-16T01:34:30;4.70;93.90
4425;DHT22;2225;53.568;13.266;2023-03-16T01:36:58;4.70;94.00
4425;DHT22;2225;53.568;13.266;2023-03-16T01:39:34;4.70;94.00
4425;DHT22;2225;53.568;13.266;2023-03-16T01:42:01;4.70;94.00
4425;DHT22;2225;53.568;13.266;2023-03-16T01:47:22;4.70;94.10
4425;DHT22;2225;53.568;13.266;2023-03-16T01:49:53;4.70;93.90
4425;DHT22;2225;53.568;13.266;2023-03-16T01:52:28;4.70;93.90
4425;DHT22;2225;53.568;13.266;2023-03-16T01:55:05;4.70;93.90
4425;DHT22;2225;53.568;13.266;2023-03-16T01:57:38;4.70;93.90
4425;DHT22;2225;53.568;13.266;2023-03-16T02:00:11;4.70;93.90
4425;DHT22;2225;53.568;13.266;2023-03-16T02:03:05;4.70;94.00
4425;DHT22;2225;53.568;13.266;2023-03-16T02:05:43;4.70;94.00
4425;DHT22;2225;53.568;13.266;2023-03-16T02:08:15;4.70;93.90
4425;DHT22;2225;53.568;13.266;2023-03-16T02:10:43;4.70;93.80
4425;DHT22;2225;53.568;13.266;2023-03-16T02:13:11;4.70;93.90
4425;DHT22;2225;53.568;13.266;2023-03-16T02:15:38;4.70;93.80
4425;DHT22;2225;53.568;13.266;2023-03-16T02:18:06;4.70;93.80
4425;DHT22;2225;53.568;13.266;2023-03-16T02:20:39;4.60;93.80
4425;DHT22;2225;53.568;13.266;2023-03-16T02:23:12;4.60;93.70
4425;DHT22;2225;53.568;13.266;2023-03-16T02:28:52;4.60;93.70
4425;DHT22;2225;53.568;13.266;2023-03-16T02:31:23;4.60;93.70
4425;DHT22;2225;53.568;13.266;2023-03-16T02:33:52;4.60;93.70
4425;DHT22;2225;53.568;13.266;2023-03-16T02:36:20;4.60;93.70
4425;DHT22;2225;53.568;13.266;2023-03-16T02:38:46;4.60;93.70
4425;DHT22;2225;53.568;13.266;2023-03-16T02:41:18;4.50;93.70
4425;DHT22;2225;53.568;13.266;2023-03-16T02:44:05;4.50;94.00
4425;DHT22;2225;53.568;13.266;2023-03-16T02:46:37;4.50;93.80
4425;DHT22;2225;53.568;13.266;2023-03-16T02:52:06;4.50;93.80
4425;DHT22;2225;53.568;13.266;2023-03-16T02:54:33;4.40;93.80
4425;DHT22;2225;53.568;13.266;2023-03-16T02:57:00;4.40;93.80
4425;DHT22;2225;53.568;13.266;2023-03-16T02:59:28;4.40;93.80
4425;DHT22;2225;53.568;13.266;2023-03-16T03:01:56;4.40;93.80
4425;DHT22;2225;53.568;13.266;2023-03-16T03:04:23;4.40;93.80
4425;DHT22;2225;53.568;13.266;2023-03-16T03:06:50;4.40;93.90
4425;DHT22;2225;53.568;13.266;2023-03-16T03:09:18;4.40;93.90
4425;DHT22;2225;53.568;13.266;2023-03-16T03:11:46;4.30;93.80
4425;DHT22;2225;53.568;13.266;2023-03-16T03:14:13;4.40;94.00
4425;DHT22;2225;53.568;13.266;2023-03-16T03:16:44;4.30;94.10
4425;DHT22;2225;53.568;13.266;2023-03-16T03:19:14;4.30;94.00
4425;DHT22;2225;53.568;13.266;2023-03-16T03:21:41;4.30;94.10
4425;DHT22;2225;53.568;13.266;2023-03-16T03:24:08;4.30;94.10
4425;DHT22;2225;53.568;13.266;2023-03-16T03:26:36;4.30;94.10
4425;DHT22;2225;53.568;13.266;2023-03-16T03:29:14;4.30;94.10
4425;DHT22;2225;53.568;13.266;2023-03-16T03:31:41;4.30;94.10
4425;DHT22;2225;53.568;13.266;2023-03-16T03:34:08;4.30;94.10
4425;DHT22;2225;53.568;13.266;2023-03-16T03:36:35;4.30;94.20
4425;DHT22;2225;53.568;13.266;2023-03-16T03:39:04;4.30;94.20
4425;DHT22;2225;53.568;13.266;2023-03-16T03:41:33;4.30;94.20
4425;DHT22;2225;53.568;13.266;2023-03-16T03:44:03;4.30;94.40
4425;DHT22;2225;53.568;13.266;2023-03-16T03:46:32;4.30;94.20
4425;DHT22;2225;53.568;13.266;2023-03-16T03:48:59;4.30;94.10
4425;DHT22;2225;53.568;13.266;2023-03-16T03:51:31;4.30;94.20
4425;DHT22;2225;53.568;13.266;2023-03-16T03:54:06;4.30;94.10
4425;DHT22;2225;53.568;13.266;2023-03-16T03:56:53;4.30;94.20
4425;DHT22;2225;53.568;13.266;2023-03-16T03:59:21;4.30;94.10
4425;DHT22;2225;53.568;13.266;2023-03-16T04:02:04;4.30;94.00
4425;DHT22;2225;53.568;13.266;2023-03-16T04:04:41;4.30;94.00
4425;DHT22;2225;53.568;13.266;2023-03-16T04:07:11;4.30;93.90
4425;DHT22;2225;53.568;13.266;2023-03-16T04:09:39;4.30;93.90
4425;DHT22;2225;53.568;13.266;2023-03-16T04:12:13;4.30;93.80
4425;DHT22;2225;53.568;13.266;2023-03-16T04:14:42;4.20;93.80
4425;DHT22;2225;53.568;13.266;2023-03-16T04:17:09;4.30;93.90
4425;DHT22;2225;53.568;13.266;2023-03-16T04:19:37;4.30;93.90
4425;DHT22;2225;53.568;13.266;2023-03-16T04:22:09;4.20;93.90
4425;DHT22;2225;53.568;13.266;2023-03-16T04:24:36;4.20;93.90
4425;DHT22;2225;53.568;13.266;2023-03-16T04:27:03;4.20;93.80
4425;DHT22;2225;53.568;13.266;2023-03-16T04:29:31;4.20;94.20
4425;DHT22;2225;53.568;13.266;2023-03-16T04:31:58;4.20;94.40
4425;DHT22;2225;53.568;13.266;2023-03-16T04:34:27;4.20;94.30
4425;DHT22;2225;53.568;13.266;2023-03-16T04:36:58;4.20;94.30
4425;DHT22;2225;53.568;13.266;2023-03-16T04:39:25;4.10;94.20
4425;DHT22;2225;53.568;13.266;2023-03-16T04:41:53;4.10;94.20
4425;DHT22;2225;53.568;13.266;2023-03-16T04:44:23;4.10;94.10
4425;DHT22;2225;53.568;13.266;2023-03-16T04:46:52;4.10;94.20
4425;DHT22;2225;53.568;13.266;2023-03-16T04:49:20;4.10;94.20
4425;DHT22;2225;53.568;13.266;2023-03-16T04:51:47;4.10;94.40
4425;DHT22;2225;53.568;13.266;2023-03-16T04:54:17;4.10;94.30
4425;DHT22;2225;53.568;13.266;2023-03-16T04:56:44;4.00;94.20
4425;DHT22;2225;53.568;13.266;2023-03-16T04:59:32;4.00;94.20
4425;DHT22;2225;53.568;13.266;2023-03-16T05:02:06;4.00;94.10
4425;DHT22;2225;53.568;13.266;2023-03-16T05:04:34;4.00;94.10
4425;DHT22;2225;53.568;13.266;2023-03-16T05:07:01;4.00;94.10
4425;DHT22;2225;53.568;13.266;2023-03-16T05:09:33;3.90;94.10
4425;DHT22;2225;53.568;13.266;2023-03-16T05:12:00;3.90;94.00
4425;DHT22;2225;53.568;13.266;2023-03-16T05:14:28;3.90;94.00
4425;DHT22;2225;53.568;13.266;2023-03-16T05:17:10;3.90;94.00
4425;DHT22;2225;53.568;13.266;2023-03-16T05:19:41;3.90;94.00
4425;DHT22;2225;53.568;13.266;2023-03-16T05:22:09;3.90;94.00
4425;DHT22;2225;53.568;13.266;2023-03-16T05:24:45;3.90;94.00
4425;DHT22;2225;53.568;13.266;2023-03-16T05:27:12;3.80;93.90
4425;DHT22;2225;53.568;13.266;2023-03-16T05:29:39;3.80;93.90
4425;DHT22;2225;53.568;13.266;2023-03-16T05:32:12;3.80;94.30
4425;DHT22;2225;53.568;13.266;2023-03-16T05:34:40;3.80;94.10
4425;DHT22;2225;53.568;13.266;2023-03-16T05:37:09;3.80;94.20
4425;DHT22;2225;53.568;13.266;2023-03-16T05:39:36;3.80;94.30
4425;DHT22;2225;53.568;13.266;2023-03-16T05:42:03;3.80;94.70
4425;DHT22;2225;53.568;13.266;2023-03-16T05:44:40;3.80;94.90
4425;DHT22;2225;53.568;13.266;2023-03-16T05:47:07;3.80;95.20
4425;DHT22;2225;53.568;13.266;2023-03-16T05:49:38;3.80;95.30
4425;DHT22;2225;53.568;13.266;2023-03-16T05:52:11;3.80;95.50
4425;DHT22;2225;53.568;13.266;2023-03-16T05:54:38;3.80;95.50
4425;DHT22;2225;53.568;13.266;2023-03-16T05:57:08;3.80;95.40
4425;DHT22;2225;53.568;13.266;2023-03-16T05:59:36;3.80;95.50
4425;DHT22;2225;53.568;13.266;2023-03-16T06:02:03;3.80;95.50
4425;DHT22;2225;53.568;13.266;2023-03-16T06:04:31;3.90;95.60
4425;DHT22;2225;53.568;13.266;2023-03-16T06:06:58;3.90;95.50
4425;DHT22;2225;53.568;13.266;2023-03-16T06:09:27;3.90;95.50
4425;DHT22;2225;53.568;13.266;2023-03-16T06:11:54;3.90;95.50
4425;DHT22;2225;53.568;13.266;2023-03-16T06:14:21;4.00;95.60
4425;DHT22;2225;53.568;13.266;2023-03-16T06:16:51;4.00;95.60
4425;DHT22;2225;53.568;13.266;2023-03-16T06:19:18;4.10;95.50
4425;DHT22;2225;53.568;13.266;2023-03-16T06:21:50;4.10;95.40
4425;DHT22;2225;53.568;13.266;2023-03-16T06:24:17;4.20;95.40
4425;DHT22;2225;53.568;13.266;2023-03-16T06:26:44;4.20;95.40
4425;DHT22;2225;53.568;13.266;2023-03-16T06:29:12;4.30;95.40
4425;DHT22;2225;53.568;13.266;2023-03-16T06:31:40;4.30;95.30
4425;DHT22;2225;53.568;13.266;2023-03-16T06:34:07;4.40;95.30
4425;DHT22;2225;53.568;13.266;2023-03-16T06:36:34;4.50;95.30
4425;DHT22;2225;53.568;13.266;2023-03-16T06:39:07;4.50;95.30
4425;DHT22;2225;53.568;13.266;2023-03-16T06:41:40;4.60;95.30
4425;DHT22;2225;53.568;13.266;2023-03-16T06:44:09;4.60;95.20
4425;DHT22;2225;53.568;13.266;2023-03-16T06:46:42;4.70;95.20
4425;DHT22;2225;53.568;13.266;2023-03-16T06:49:09;4.80;95.20
4425;DHT22;2225;53.568;13.266;2023-03-16T06:51:37;4.80;95.20
4425;DHT22;2225;53.568;13.266;2023-03-16T06:54:04;4.90;95.20
4425;DHT22;2225;53.568;13.266;2023-03-16T06:56:35;4.90;95.20
4425;DHT22;2225;53.568;13.266;2023-03-16T06:59:02;5.00;95.20
4425;DHT22;2225;53.568;13.266;2023-03-16T07:01:29;5.10;95.10
4425;DHT22;2225;53.568;13.266;2023-03-16T07:03:57;5.10;95.10
4425;DHT22;2225;53.568;13.266;2023-03-16T07:06:28;5.20;95.00
4425;DHT22;2225;53.568;13.266;2023-03-16T07:08:55;5.30;95.00
4425;DHT22;2225;53.568;13.266;2023-03-16T07:11:23;5.30;95.00
4425;DHT22;2225;53.568;13.266;2023-03-16T07:13:50;5.40;95.00
4425;DHT22;2225;53.568;13.266;2023-03-16T07:16:18;5.50;94.90
4425;DHT22;2225;53.568;13.266;2023-03-16T07:18:46;5.50;94.80
4425;DHT22;2225;53.568;13.266;2023-03-16T07:21:15;5.60;94.80
4425;DHT22;2225;53.568;13.266;2023-03-16T07:23:43;5.70;94.80
4425;DHT22;2225;53.568;13.266;2023-03-16T07:26:13;5.80;94.70
4425;DHT22;2225;53.568;13.266;2023-03-16T07:28:49;5.80;94.60
4425;DHT22;2225;53.568;13.266;2023-03-16T07:31:16;5.90;94.60
4425;DHT22;2225;53.568;13.266;2023-03-16T07:33:44;6.00;94.60
4425;DHT22;2225;53.568;13.266;2023-03-16T07:36:17;6.00;94.50
4425;DHT22;2225;53.568;13.266;2023-03-16T07:38:50;6.10;94.50
4425;DHT22;2225;53.568;13.266;2023-03-16T07:41:17;6.20;94.40
4425;DHT22;2225;53.568;13.266;2023-03-16T07:43:44;6.20;94.40
4425;DHT22;2225;53.568;13.266;2023-03-16T07:46:13;6.20;94.10
4425;DHT22;2225;53.568;13.266;2023-03-16T07:48:41;6.30;94.00
4425;DHT22;2225;53.568;13.266;2023-03-16T07:51:12;6.30;94.10
4425;DHT22;2225;53.568;13.266;2023-03-16T07:53:40;6.40;94.10
4425;DHT22;2225;53.568;13.266;2023-03-16T07:56:18;6.40;94.00
4425;DHT22;2225;53.568;13.266;2023-03-16T07:58:50;6.50;94.00
4425;DHT22;2225;53.568;13.266;2023-03-16T08:01:17;6.50;93.90
4425;DHT22;2225;53.568;13.266;2023-03-16T08:03:45;6.60;93.90
4425;DHT22;2225;53.568;13.266;2023-03-16T08:06:12;6.70;93.70
4425;DHT22;2225;53.568;13.266;2023-03-16T08:08:39;6.80;93.60
4425;DHT22;2225;53.568;13.266;2023-03-16T08:11:09;6.80;93.60
4425;DHT22;2225;53.568;13.266;2023-03-16T08:13:45;6.90;93.50
4425;DHT22;2225;53.568;13.266;2023-03-16T08:16:13;7.00;93.50
4425;DHT22;2225;53.568;13.266;2023-03-16T08:18:43;7.10;93.70
4425;DHT22;2225;53.568;13.266;2023-03-16T08:21:10;7.20;93.60
4425;DHT22;2225;53.568;13.266;2023-03-16T08:23:37;7.30;93.50
4425;DHT22;2225;53.568;13.266;2023-03-16T08:26:08;7.40;93.40
4425;DHT22;2225;53.568;13.266;2023-03-16T08:28:40;7.50;93.30
4425;DHT22;2225;53.568;13.266;2023-03-16T08:31:14;7.60;93.10
4425;DHT22;2225;53.568;13.266;2023-03-16T08:33:50;7.70;92.80
4425;DHT22;2225;53.568;13.266;2023-03-16T08:36:21;7.80;92.90
4425;DHT22;2225;53.568;13.266;2023-03-16T08:38:51;7.90;92.60
4425;DHT22;2225;53.568;13.266;2023-03-16T08:41:36;8.00;92.40
4425;DHT22;2225;53.568;13.266;2023-03-16T08:44:08;8.00;92.20
4425;DHT22;2225;53.568;13.266;2023-03-16T08:46:36;8.10;92.10
4425;DHT22;2225;53.568;13.266;2023-03-16T08:49:04;8.10;91.80
4425;DHT22;2225;53.568;13.266;2023-03-16T08:51:32;8.20;91.80
4425;DHT22;2225;53.568;13.266;2023-03-16T08:53:59;8.20;91.70
4425;DHT22;2225;53.568;13.266;2023-03-16T08:56:26;8.30;91.70
4425;DHT22;2225;53.568;13.266;2023-03-16T08:58:55;8.30;91.70
4425;DHT22;2225;53.568;13.266;2023-03-16T09:01:23;8.40;91.60
4425;DHT22;2225;53.568;13.266;2023-03-16T09:03:51;8.40;91.50
4425;DHT22;2225;53.568;13.266;2023-03-16T09:06:18;8.50;91.70
4425;DHT22;2225;53.568;13.266;2023-03-16T09:08:45;8.50;91.60
4425;DHT22;2225;53.568;13.266;2023-03-16T09:11:16;8.60;91.70
4425;DHT22;2225;53.568;13.266;2023-03-16T09:13:45;8.60;91.50
4425;DHT22;2225;53.568;13.266;2023-03-16T09:16:13;8.70;91.40
4425;DHT22;2225;53.568;13.266;2023-03-16T09:18:41;8.80;91.30
4425;DHT22;2225;53.568;13.266;2023-03-16T09:21:10;8.80;90.60
4425;DHT22;2225;53.568;13.266;2023-03-16T09:23:40;8.90;90.60
4425;DHT22;2225;53.568;13.266;2023-03-16T09:26:10;8.90;90.90
4425;DHT22;2225;53.568;13.266;2023-03-16T09:28:39;9.00;90.50
4425;DHT22;2225;53.568;13.266;2023-03-16T09:31:12;9.00;90.60
4425;DHT22;2225;53.568;13.266;2023-03-16T09:33:42;9.10;90.30
4425;DHT22;2225;53.568;13.266;2023-03-16T09:36:09;9.10;90.20
4425;DHT22;2225;53.568;13.266;2023-03-16T09:38:40;9.30;90.40
4425;DHT22;2225;53.568;13.266;2023-03-16T09:41:28;9.30;90.50
4425;DHT22;2225;53.568;13.266;2023-03-16T09:46:48;9.50;87.90
4425;DHT22;2225;53.568;13.266;2023-03-16T09:49:18;9.50;89.20
4425;DHT22;2225;53.568;13.266;2023-03-16T09:57:33;9.70;88.00
4425;DHT22;2225;53.568;13.266;2023-03-16T10:00:19;9.70;87.20
4425;DHT22;2225;53.568;13.266;2023-03-16T10:05:47;9.80;87.50
4425;DHT22;2225;53.568;13.266;2023-03-16T10:08:23;9.80;86.30
4425;DHT22;2225;53.568;13.266;2023-03-16T10:11:14;9.90;86.50
4425;DHT22;2225;53.568;13.266;2023-03-16T10:16:40;9.90;84.60
4425;DHT22;2225;53.568;13.266;2023-03-16T10:19:20;10.00;85.50
4425;DHT22;2225;53.568;13.266;2023-03-16T10:21:53;10.00;85.10
4425;DHT22;2225;53.568;13.266;2023-03-16T10:27:23;10.20;84.70
4425;DHT22;2225;53.568;13.266;2023-03-16T10:29:57;10.20;84.20
4425;DHT22;2225;53.568;13.266;2023-03-16T10:32:30;10.30;85.70
4425;DHT22;2225;53.568;13.266;2023-03-16T10:40:53;10.50;80.70
4425;DHT22;2225;53.568;13.266;2023-03-16T10:43:20;10.50;82.60
4425;DHT22;2225;53.568;13.266;2023-03-16T10:45:48;10.50;81.60
4425;DHT22;2225;53.568;13.266;2023-03-16T10:48:17;10.60;82.60
4425;DHT22;2225;53.568;13.266;2023-03-16T10:50:52;10.70;81.90
4425;DHT22;2225;53.568;13.266;2023-03-16T10:53:22;10.70;80.30
4425;DHT22;2225;53.568;13.266;2023-03-16T10:55:57;10.80;78.50
4425;DHT22;2225;53.568;13.266;2023-03-16T10:58:28;10.80;80.50
4425;DHT22;2225;53.568;13.266;2023-03-16T11:00:56;10.90;80.50
4425;DHT22;2225;53.568;13.266;2023-03-16T11:03:29;10.90;81.00
4425;DHT22;2225;53.568;13.266;2023-03-16T11:06:01;11.00;78.40
4425;DHT22;2225;53.568;13.266;2023-03-16T11:08:34;11.00;76.80
4425;DHT22;2225;53.568;13.266;2023-03-16T11:11:10;11.00;75.70
4425;DHT22;2225;53.568;13.266;2023-03-16T11:13:44;11.10;75.20
4425;DHT22;2225;53.568;13.266;2023-03-16T11:16:33;11.10;74.90
4425;DHT22;2225;53.568;13.266;2023-03-16T11:19:30;11.10;74.70
4425;DHT22;2225;53.568;13.266;2023-03-16T11:22:13;11.20;73.40
4425;DHT22;2225;53.568;13.266;2023-03-16T11:27:45;11.30;75.60
4425;DHT22;2225;53.568;13.266;2023-03-16T11:30:28;11.40;74.70
4425;DHT22;2225;53.568;13.266;2023-03-16T11:32:57;11.50;75.20
4425;DHT22;2225;53.568;13.266;2023-03-16T11:39:00;11.60;73.70
4425;DHT22;2225;53.568;13.266;2023-03-16T11:41:57;11.60;72.90
4425;DHT22;2225;53.568;13.266;2023-03-16T11:44:42;11.70;72.30
4425;DHT22;2225;53.568;13.266;2023-03-16T11:53:16;11.80;68.80
4425;DHT22;2225;53.568;13.266;2023-03-16T11:56:15;11.80;67.50
4425;DHT22;2225;53.568;13.266;2023-03-16T11:59:09;11.80;68.50
4425;DHT22;2225;53.568;13.266;2023-03-16T12:11:02;11.90;68.40
4425;DHT22;2225;53.568;13.266;2023-03-16T12:13:44;12.00;69.90
4425;DHT22;2225;53.568;13.266;2023-03-16T12:19:44;12.10;69.30
4425;DHT22;2225;53.568;13.266;2023-03-16T12:22:26;12.10;69.20
4425;DHT22;2225;53.568;13.266;2023-03-16T12:24:56;12.10;69.80
4425;DHT22;2225;53.568;13.266;2023-03-16T12:27:31;12.20;69.90
4425;DHT22;2225;53.568;13.266;2023-03-16T12:36:40;12.40;70.30
4425;DHT22;2225;53.568;13.266;2023-03-16T12:39:34;12.50;69.60
4425;DHT22;2225;53.568;13.266;2023-03-16T12:42:28;12.50;70.40
4425;DHT22;2225;53.568;13.266;2023-03-16T12:45:35;12.60;67.30
4425;DHT22;2225;53.568;13.266;2023-03-16T12:48:36;12.60;67.60
4425;DHT22;2225;53.568;13.266;2023-03-16T12:51:04;12.60;68.60
4425;DHT22;2225;53.568;13.266;2023-03-16T12:53:44;12.70;66.80
4425;DHT22;2225;53.568;13.266;2023-03-16T12:56:18;12.70;67.90
4425;DHT22;2225;53.568;13.266;2023-03-16T12:58:56;12.80;69.40
4425;DHT22;2225;53.568;13.266;2023-03-16T13:01:44;12.80;68.40
4425;DHT22;2225;53.568;13.266;2023-03-16T13:04:15;12.90;68.60
4425;DHT22;2225;53.568;13.266;2023-03-16T13:06:50;12.90;67.80
4425;DHT22;2225;53.568;13.266;2023-03-16T13:09:27;13.00;67.60
4425;DHT22;2225;53.568;13.266;2023-03-16T13:11:57;13.00;67.50
4425;DHT22;2225;53.568;13.266;2023-03-16T13:14:42;13.00;66.50
4425;DHT22;2225;53.568;13.266;2023-03-16T13:19:44;13.10;67.00
4425;DHT22;2225;53.568;13.266;2023-03-16T13:22:45;13.20;67.90
4425;DHT22;2225;53.568;13.266;2023-03-16T13:25:24;13.30;66.80
4425;DHT22;2225;53.568;13.266;2023-03-16T13:28:07;13.30;62.30
4425;DHT22;2225;53.568;13.266;2023-03-16T13:30:45;13.30;61.00
4425;DHT22;2225;53.568;13.266;2023-03-16T13:33:29;13.30;60.20
4425;DHT22;2225;53.568;13.266;2023-03-16T13:35:58;13.30;58.70
4425;DHT22;2225;53.568;13.266;2023-03-16T13:38:27;13.30;58.70
4425;DHT22;2225;53.568;13.266;2023-03-16T13:40:57;13.30;60.60
4425;DHT22;2225;53.568;13.266;2023-03-16T13:43:45;13.40;61.30
4425;DHT22;2225;53.568;13.266;2023-03-16T13:46:17;13.30;57.80
4425;DHT22;2225;53.568;13.266;2023-03-16T13:48:47;13.40;57.00
4425;DHT22;2225;53.568;13.266;2023-03-16T13:51:19;13.30;58.50
4425;DHT22;2225;53.568;13.266;2023-03-16T13:53:48;13.40;57.90
4425;DHT22;2225;53.568;13.266;2023-03-16T13:56:21;13.40;57.20
4425;DHT22;2225;53.568;13.266;2023-03-16T13:58:52;13.40;58.50
4425;DHT22;2225;53.568;13.266;2023-03-16T14:01:30;13.50;57.00
4425;DHT22;2225;53.568;13.266;2023-03-16T14:04:01;13.40;55.90
4425;DHT22;2225;53.568;13.266;2023-03-16T14:06:34;13.30;54.90
4425;DHT22;2225;53.568;13.266;2023-03-16T14:09:04;13.30;54.30
4425;DHT22;2225;53.568;13.266;2023-03-16T14:11:32;13.20;56.00
4425;DHT22;2225;53.568;13.266;2023-03-16T14:13:59;13.20;57.80
4425;DHT22;2225;53.568;13.266;2023-03-16T14:16:28;13.20;54.70
4425;DHT22;2225;53.568;13.266;2023-03-16T14:19:07;13.20;55.20
4425;DHT22;2225;53.568;13.266;2023-03-16T14:21:44;13.10;54.30
4425;DHT22;2225;53.568;13.266;2023-03-16T14:24:34;13.00;53.90
4425;DHT22;2225;53.568;13.266;2023-03-16T14:27:17;13.00;55.60
4425;DHT22;2225;53.568;13.266;2023-03-16T14:29:55;13.00;55.40
4425;DHT22;2225;53.568;13.266;2023-03-16T14:32:29;13.00;55.20
4425;DHT22;2225;53.568;13.266;2023-03-16T14:35:11;13.00;54.70
4425;DHT22;2225;53.568;13.266;2023-03-16T14:37:43;13.00;51.00
4425;DHT22;2225;53.568;13.266;2023-03-16T14:40:30;13.00;51.60
4425;DHT22;2225;53.568;13.266;2023-03-16T14:43:01;13.00;52.90
4425;DHT22;2225;53.568;13.266;2023-03-16T14:45:34;13.00;51.80
4425;DHT22;2225;53.568;13.266;2023-03-16T14:48:12;13.00;52.90
4425;DHT22;2225;53.568;13.266;2023-03-16T14:50:42;13.00;54.10
4425;DHT22;2225;53.568;13.266;2023-03-16T14:53:09;13.00;53.60
4425;DHT22;2225;53.568;13.266;2023-03-16T14:55:37;13.00;52.40
4425;DHT22;2225;53.568;13.266;2023-03-16T14:58:04;13.00;52.30
4425;DHT22;2225;53.568;13.266;2023-03-16T15:00:32;13.00;53.80
4425;DHT22;2225;53.568;13.266;2023-03-16T15:03:15;13.00;53.00
4425;DHT22;2225;53.568;13.266;2023-03-16T15:05:46;12.90;51.90
4425;DHT22;2225;53.568;13.266;2023-03-16T15:08:22;12.90;53.00
4425;DHT22;2225;53.568;13.266;2023-03-16T15:10:53;12.90;53.10
4425;DHT22;2225;53.568;13.266;2023-03-16T15:13:21;13.00;53.10
4425;DHT22;2225;53.568;13.266;2023-03-16T15:16:11;13.00;52.50
4425;DHT22;2225;53.568;13.266;2023-03-16T15:18:40;13.00;52.30
4425;DHT22;2225;53.568;13.266;2023-03-16T15:21:17;12.90;51.50
4425;DHT22;2225;53.568;13.266;2023-03-16T15:23:46;12.90;50.90
4425;DHT22;2225;53.568;13.266;2023-03-16T15:26:16;12.80;52.10
4425;DHT22;2225;53.568;13.266;2023-03-16T15:28:49;12.90;50.40
4425;DHT22;2225;53.568;13.266;2023-03-16T15:31:16;12.80;51.30
4425;DHT22;2225;53.568;13.266;2023-03-16T15:33:43;12.80;51.60
4425;DHT22;2225;53.568;13.266;2023-03-16T15:36:18;12.80;49.80
4425;DHT22;2225;53.568;13.266;2023-03-16T15:38:49;12.70;49.30
4425;DHT22;2225;53.568;13.266;2023-03-16T15:41:18;12.60;47.40
4425;DHT22;2225;53.568;13.266;2023-03-16T15:43:45;12.60;47.50
4425;DHT22;2225;53.568;13.266;2023-03-16T15:46:13;12.50;47.70
4425;DHT22;2225;53.568;13.266;2023-03-16T15:48:40;12.50;49.10
4425;DHT22;2225;53.568;13.266;2023-03-16T15:51:21;12.50;49.70
4425;DHT22;2225;53.568;13.266;2023-03-16T15:53:57;12.60;48.50
4425;DHT22;2225;53.568;13.266;2023-03-16T15:56:27;12.50;48.70
4425;DHT22;2225;53.568;13.266;2023-03-16T15:59:01;12.50;47.70
4425;DHT22;2225;53.568;13.266;2023-03-16T16:01:42;12.50;47.60
4425;DHT22;2225;53.568;13.266;2023-03-16T16:04:16;12.40;48.50
4425;DHT22;2225;53.568;13.266;2023-03-16T16:06:46;12.40;49.00
4425;DHT22;2225;53.568;13.266;2023-03-16T16:09:14;12.30;49.20
4425;DHT22;2225;53.568;13.266;2023-03-16T16:11:41;12.30;49.80
4425;DHT22;2225;53.568;13.266;2023-03-16T16:14:13;12.20;49.80
4425;DHT22;2225;53.568;13.266;2023-03-16T16:16:42;12.20;50.30
4425;DHT22;2225;53.568;13.266;2023-03-16T16:19:15;12.10;50.80
4425;DHT22;2225;53.568;13.266;2023-03-16T16:21:42;12.10;50.80
4425;DHT22;2225;53.568;13.266;2023-03-16T16:24:09;12.00;51.20
4425;DHT22;2225;53.568;13.266;2023-03-16T16:26:41;12.00;51.50
4425;DHT22;2225;53.568;13.266;2023-03-16T16:29:26;11.90;51.80
4425;DHT22;2225;53.568;13.266;2023-03-16T16:31:56;11.90;51.20
4425;DHT22;2225;53.568;13.266;2023-03-16T16:34:23;11.80;51.70
4425;DHT22;2225;53.568;13.266;2023-03-16T16:36:52;11.80;51.90
4425;DHT22;2225;53.568;13.266;2023-03-16T16:39:20;11.80;52.30
4425;DHT22;2225;53.568;13.266;2023-03-16T16:41:49;11.70;52.40
4425;DHT22;2225;53.568;13.266;2023-03-16T16:44:19;11.70;53.00
4425;DHT22;2225;53.568;13.266;2023-03-16T16:46:49;11.70;53.00
4425;DHT22;2225;53.568;13.266;2023-03-16T16:49:25;11.70;53.40
4425;DHT22;2225;53.568;13.266;2023-03-16T16:51:53;11.70;53.50
4425;DHT22;2225;53.568;13.266;2023-03-16T16:54:23;11.70;54.00
4425;DHT22;2225;53.568;13.266;2023-03-16T16:56:53;11.70;54.20
4425;DHT22;2225;53.568;13.266;2023-03-16T16:59:27;11.70;54.40
4425;DHT22;2225;53.568;13.266;2023-03-16T17:01:57;11.70;54.90
4425;DHT22;2225;53.568;13.266;2023-03-16T17:04:28;11.70;55.00
4425;DHT22;2225;53.568;13.266;2023-03-16T17:06:57;11.70;55.20
4425;DHT22;2225;53.568;13.266;2023-03-16T17:09:27;11.70;55.50
4425;DHT22;2225;53.568;13.266;2023-03-16T17:11:58;11.70;56.10
4425;DHT22;2225;53.568;13.266;2023-03-16T17:14:26;11.60;56.60
4425;DHT22;2225;53.568;13.266;2023-03-16T17:16:54;11.60;57.20
4425;DHT22;2225;53.568;13.266;2023-03-16T17:19:23;11.50;57.50
4425;DHT22;2225;53.568;13.266;2023-03-16T17:21:54;11.50;58.00
4425;DHT22;2225;53.568;13.266;2023-03-16T17:24:23;11.40;58.50
4425;DHT22;2225;53.568;13.266;2023-03-16T17:26:54;11.40;59.10
4425;DHT22;2225;53.568;13.266;2023-03-16T17:29:31;11.40;59.50
4425;DHT22;2225;53.568;13.266;2023-03-16T17:32:01;11.40;59.80